TimeEST,TemperatureF,Dew PointF,Humidity,Sea Level PressureIn,VisibilityMPH,Wind Direction,Wind SpeedMPH,Gust SpeedMPH,PrecipitationIn,Events,Conditions,WindDirDegrees,DateUTC
12:55 AM,32.7,28.9,86,30.19,10.0,Calm,Calm,-,N/A,,Clear,0,2012-11-09 05:55:00
1:55 AM,31.3,26.8,83,30.20,10.0,Calm,Calm,-,N/A,,Clear,0,2012-11-09 06:55:00
2:55 AM,31.3,27.3,85,30.21,10.0,Calm,Calm,-,N/A,,Clear,0,2012-11-09 07:55:00
4:55 AM,30.4,27.3,88,30.23,10.0,Calm,Calm,-,N/A,,Clear,0,2012-11-09 09:55:00
5:55 AM,28.2,25.2,88,30.25,10.0,Calm,Calm,-,N/A,,Clear,0,2012-11-09 10:55:00
6:55 AM,29.3,25.9,87,30.26,10.0,Calm,Calm,-,N/A,,Clear,0,2012-11-09 11:55:00
7:55 AM,28.9,25.5,87,30.27,10.0,Calm,Calm,-,N/A,,Clear,0,2012-11-09 12:55:00
8:55 AM,36.1,30.7,81,30.27,10.0,SE,3.5,-,N/A,,Clear,130,2012-11-09 13:55:00
9:55 AM,42.8,33.4,70,30.26,10.0,SSE,3.5,-,N/A,,Clear,150,2012-11-09 14:55:00
10:55 AM,49.3,36.3,61,30.26,10.0,South,6.9,-,N/A,,Clear,180,2012-11-09 15:55:00
11:55 AM,53.8,37.8,55,30.23,10.0,SSW,9.2,-,N/A,,Clear,210,2012-11-09 16:55:00
12:55 PM,55.6,37.9,52,30.19,10.0,South,10.4,-,N/A,,Clear,180,2012-11-09 17:55:00
1:55 PM,57.4,36.1,45,30.17,10.0,South,10.4,-,N/A,,Clear,180,2012-11-09 18:55:00
2:55 PM,58.8,34.5,40,30.16,10.0,South,9.2,-,N/A,,Clear,190,2012-11-09 19:55:00
3:00 PM,59.0,33.8,39,30.13,10.0,South,11.5,-,N/A,,Clear,180,2012-11-09 20:00:00
3:55 PM,58.6,33.6,39,30.14,10.0,South,11.5,-,N/A,,Clear,190,2012-11-09 20:55:00
4:55 PM,56.5,34.2,43,30.15,10.0,South,10.4,-,N/A,,Partly Cloudy,190,2012-11-09 21:55:00
5:55 PM,53.8,34.9,49,30.15,10.0,SSE,5.8,-,N/A,,Mostly Cloudy,150,2012-11-09 22:55:00
6:55 PM,51.3,35.1,54,30.15,10.0,SE,8.1,-,N/A,,Scattered Clouds,130,2012-11-09 23:55:00
7:55 PM,50.7,35.2,55,30.15,10.0,SSE,6.9,-,N/A,,Scattered Clouds,160,2012-11-10 00:55:00
8:55 PM,51.8,35.8,54,30.14,10.0,SSE,8.1,-,N/A,,Overcast,160,2012-11-10 01:55:00
9:55 PM,51.1,36.1,57,30.14,10.0,South,8.1,-,N/A,,Overcast,170,2012-11-10 02:55:00
10:55 PM,51.4,36.0,56,30.14,10.0,South,6.9,-,N/A,,Mostly Cloudy,170,2012-11-10 03:55:00
11:55 PM,51.3,36.3,57,30.14,10.0,SSE,5.8,-,N/A,,Overcast,160,2012-11-10 04:55:00